createdAt,value
2018-03-07T00:00:20.118Z,39.00
2018-03-07T00:02:47.653Z,39.87
2018-03-07T00:05:15.221Z,39.53
2018-03-07T00:07:42.734Z,40.23
2018-03-07T00:10:10.257Z,40.47
2018-03-07T00:12:37.771Z,39.77
2018-03-07T00:15:05.284Z,38.20
2018-03-07T00:17:32.837Z,38.17
2018-03-07T00:20:00.351Z,38.63
2018-03-07T00:22:27.873Z,39.23
2018-03-07T00:24:55.380Z,38.30
2018-03-07T00:27:22.904Z,39.17
2018-03-07T00:29:50.537Z,38.53
2018-03-07T00:32:18.063Z,38.80
2018-03-07T00:34:45.564Z,39.60
2018-03-07T00:37:13.195Z,39.80
2018-03-07T00:39:40.748Z,40.53
2018-03-07T00:42:08.269Z,40.40
2018-03-07T00:44:35.806Z,40.33
2018-03-07T00:47:03.332Z,40.10
2018-03-07T00:49:30.850Z,39.73
2018-03-07T00:51:58.368Z,40.70
2018-03-07T00:54:25.882Z,41.00
2018-03-07T00:56:53.404Z,38.33
2018-03-07T00:59:21.020Z,38.20
2018-03-07T01:01:48.535Z,40.93
2018-03-07T01:04:16.037Z,39.43
2018-03-07T01:06:43.546Z,38.67
2018-03-07T01:09:11.053Z,39.10
2018-03-07T01:11:38.615Z,38.93
2018-03-07T01:14:06.116Z,39.93
2018-03-07T01:16:33.643Z,39.70
2018-03-07T01:19:01.172Z,39.37
2018-03-07T01:21:28.703Z,39.10
2018-03-07T01:23:56.221Z,39.93
2018-03-07T01:26:23.737Z,38.70
2018-03-07T01:28:51.260Z,39.27
2018-03-07T01:31:18.799Z,40.03
2018-03-07T01:33:46.317Z,38.57
2018-03-07T01:36:13.843Z,39.63
2018-03-07T01:38:41.384Z,40.63
2018-03-07T01:41:08.899Z,41.57
2018-03-07T01:43:36.424Z,40.10
2018-03-07T01:46:03.946Z,40.90
2018-03-07T01:48:31.514Z,41.33
2018-03-07T01:50:59.047Z,41.10
2018-03-07T01:53:26.558Z,39.97
2018-03-07T01:55:54.063Z,41.67
2018-03-07T01:58:21.622Z,41.63
2018-03-07T02:00:49.196Z,41.30
2018-03-07T02:03:16.705Z,40.90
2018-03-07T02:05:44.218Z,42.20
2018-03-07T02:08:11.753Z,43.40
2018-03-07T02:10:39.273Z,43.63
2018-03-07T02:13:06.834Z,42.63
2018-03-07T02:15:34.345Z,41.83
2018-03-07T02:18:01.919Z,42.30
2018-03-07T02:20:29.432Z,43.67
2018-03-07T02:22:56.946Z,42.97
2018-03-07T02:25:24.472Z,44.97
2018-03-07T02:27:51.992Z,44.03
2018-03-07T02:30:19.532Z,45.17
2018-03-07T02:32:47.108Z,45.37
2018-03-07T02:35:14.587Z,44.13
2018-03-07T02:37:42.136Z,46.10
2018-03-07T02:40:09.665Z,45.17
2018-03-07T02:42:37.205Z,47.47
2018-03-07T02:45:04.745Z,45.90
2018-03-07T02:47:32.301Z,44.23
2018-03-07T02:49:59.820Z,44.30
2018-03-07T02:52:27.452Z,44.00
2018-03-07T02:54:54.957Z,44.33
2018-03-07T02:57:22.587Z,44.40
2018-03-07T02:59:50.110Z,44.27
2018-03-07T03:02:17.630Z,44.40
2018-03-07T03:04:45.266Z,45.07
2018-03-07T03:07:12.778Z,44.50
2018-03-07T03:09:40.293Z,41.77
2018-03-07T03:12:07.813Z,43.43
2018-03-07T03:14:35.333Z,41.83
2018-03-07T03:17:02.844Z,43.07
2018-03-07T03:19:30.372Z,42.67
2018-03-07T03:21:57.905Z,44.70
2018-03-07T03:24:25.576Z,43.50
2018-03-07T03:26:53.078Z,43.60
2018-03-07T03:29:20.649Z,42.20
2018-03-07T03:31:48.171Z,43.40
2018-03-07T03:34:15.766Z,42.93
2018-03-07T03:36:43.343Z,43.67
2018-03-07T03:39:10.891Z,42.90
2018-03-07T03:41:38.435Z,42.27
2018-03-07T03:44:05.945Z,44.43
2018-03-07T03:46:33.467Z,45.00
2018-03-07T03:49:00.981Z,42.93
2018-03-07T03:51:28.489Z,46.00
2018-03-07T03:53:56.160Z,44.77
2018-03-07T03:56:23.685Z,44.73
2018-03-07T03:58:51.269Z,45.57
2018-03-07T04:01:18.791Z,44.83
2018-03-07T04:03:46.302Z,44.10
2018-03-07T04:06:13.852Z,43.80
2018-03-07T04:08:41.370Z,45.50
2018-03-07T04:11:08.983Z,44.97
2018-03-07T04:13:36.503Z,43.80
2018-03-07T04:16:04.034Z,43.53
2018-03-07T04:18:31.542Z,44.60
2018-03-07T04:20:59.109Z,43.27
2018-03-07T04:23:26.630Z,44.20
2018-03-07T04:25:54.220Z,45.17
2018-03-07T04:28:21.750Z,45.00
2018-03-07T04:30:49.265Z,44.17
2018-03-07T04:33:16.784Z,44.40
2018-03-07T04:35:44.298Z,45.13
2018-03-07T04:38:11.818Z,45.60
2018-03-07T04:40:39.404Z,44.33
2018-03-07T04:43:06.934Z,43.90
2018-03-07T04:45:34.445Z,43.77
2018-03-07T04:48:01.967Z,47.13
2018-03-07T04:50:29.479Z,44.83
2018-03-07T04:52:57.088Z,44.63
2018-03-07T04:55:24.602Z,44.77
2018-03-07T04:57:52.197Z,44.27
2018-03-07T05:00:19.705Z,44.13
2018-03-07T05:02:47.367Z,46.07
2018-03-07T05:05:14.884Z,44.10
2018-03-07T05:07:42.397Z,44.27
2018-03-07T05:10:09.934Z,45.00
2018-03-07T05:12:37.452Z,44.67
2018-03-07T05:15:04.964Z,43.43
2018-03-07T05:17:32.482Z,44.53
2018-03-07T05:19:59.993Z,43.13
2018-03-07T05:22:27.510Z,42.03
2018-03-07T05:24:55.025Z,43.57
2018-03-07T05:27:22.541Z,42.53
2018-03-07T05:29:50.049Z,42.10
2018-03-07T05:32:17.565Z,43.40
2018-03-07T05:34:45.084Z,43.43
2018-03-07T05:37:12.596Z,44.87
2018-03-07T05:39:40.111Z,43.83
2018-03-07T05:42:07.620Z,43.00
2018-03-07T05:44:35.174Z,43.73
2018-03-07T05:47:02.678Z,44.43
2018-03-07T05:49:30.194Z,43.43
2018-03-07T05:51:57.705Z,41.83
2018-03-07T05:54:25.227Z,42.00
2018-03-07T05:56:52.749Z,42.60
2018-03-07T05:59:20.266Z,41.40
2018-03-07T06:01:47.780Z,42.70
2018-03-07T06:04:15.305Z,43.10
2018-03-07T06:06:42.821Z,41.97
2018-03-07T06:09:10.324Z,43.17
2018-03-07T06:11:37.858Z,43.07
2018-03-07T06:14:05.359Z,43.17
2018-03-07T06:16:32.870Z,42.17
2018-03-07T06:19:00.394Z,42.90
2018-03-07T06:21:27.915Z,43.60
2018-03-07T06:23:55.439Z,43.73
2018-03-07T06:26:22.958Z,43.30
2018-03-07T06:28:50.470Z,44.03
2018-03-07T06:31:18.002Z,43.57
2018-03-07T06:33:45.530Z,43.67
2018-03-07T06:36:13.041Z,44.63
2018-03-07T06:38:40.562Z,44.33
2018-03-07T06:41:08.095Z,45.10
2018-03-07T06:43:35.616Z,44.10
2018-03-07T06:46:03.124Z,44.47
2018-03-07T06:48:30.645Z,43.20
2018-03-07T06:50:58.156Z,44.43
2018-03-07T06:53:25.794Z,45.53
2018-03-07T06:55:53.308Z,43.80
2018-03-07T06:58:20.837Z,44.13
2018-03-07T07:00:48.369Z,46.80
2018-03-07T07:03:15.905Z,43.63
2018-03-07T07:05:43.417Z,43.73
2018-03-07T07:08:10.933Z,43.50
2018-03-07T07:10:38.447Z,45.40
2018-03-07T07:13:05.958Z,46.30
2018-03-07T07:15:33.471Z,44.23
2018-03-07T07:18:00.989Z,44.67
2018-03-07T07:20:28.506Z,44.00
2018-03-07T07:22:56.029Z,43.43
2018-03-07T07:25:23.541Z,46.80
2018-03-07T07:27:51.066Z,44.47
2018-03-07T07:30:18.590Z,42.67
2018-03-07T07:32:46.101Z,42.77
2018-03-07T07:35:13.619Z,41.63
2018-03-07T07:37:41.130Z,42.50
2018-03-07T07:40:08.645Z,43.10
2018-03-07T07:42:36.171Z,41.97
2018-03-07T07:45:03.681Z,42.00
2018-03-07T07:47:31.200Z,42.60
2018-03-07T07:49:58.717Z,40.93
2018-03-07T07:52:26.233Z,40.00
2018-03-07T07:54:53.756Z,40.60
2018-03-07T07:57:21.314Z,39.73
2018-03-07T07:59:48.826Z,41.07
2018-03-07T08:02:16.388Z,40.33
2018-03-07T08:04:43.905Z,40.13
2018-03-07T08:07:11.494Z,38.40
2018-03-07T08:09:39.058Z,38.63
2018-03-07T08:12:06.572Z,39.40
2018-03-07T08:14:34.090Z,38.13
2018-03-07T08:17:01.602Z,37.20
2018-03-07T08:19:29.139Z,37.33
2018-03-07T08:21:56.723Z,36.67
2018-03-07T08:24:24.249Z,38.70
2018-03-07T08:26:51.774Z,38.43
2018-03-07T08:29:19.296Z,38.87
2018-03-07T08:31:46.813Z,39.83
2018-03-07T08:34:14.338Z,37.73
2018-03-07T08:36:41.853Z,38.80
2018-03-07T08:39:09.389Z,37.97
2018-03-07T08:41:36.916Z,35.33
2018-03-07T08:44:04.482Z,37.33
2018-03-07T08:46:32.001Z,38.13
2018-03-07T08:48:59.524Z,37.63
2018-03-07T08:51:27.072Z,38.13
2018-03-07T08:53:54.587Z,36.33
2018-03-07T08:56:22.105Z,36.27
2018-03-07T08:58:49.624Z,36.50
2018-03-07T09:01:17.141Z,36.87
2018-03-07T09:03:44.658Z,36.63
2018-03-07T09:06:12.178Z,35.97
2018-03-07T09:08:39.702Z,34.93
2018-03-07T09:11:07.225Z,35.63
2018-03-07T09:13:34.767Z,35.03
2018-03-07T09:16:02.281Z,34.57
2018-03-07T09:18:29.815Z,32.80
2018-03-07T09:20:57.329Z,33.73
2018-03-07T09:23:24.858Z,33.43
2018-03-07T09:25:52.386Z,32.63
2018-03-07T09:28:19.902Z,30.07
2018-03-07T09:30:47.418Z,30.93
2018-03-07T09:33:14.933Z,32.47
2018-03-07T09:35:42.470Z,29.63
2018-03-07T09:38:09.991Z,29.77
2018-03-07T09:40:37.506Z,28.10
2018-03-07T09:43:05.022Z,27.80
2018-03-07T09:45:32.548Z,27.53
2018-03-07T09:48:00.082Z,30.23
2018-03-07T09:50:27.589Z,28.63
2018-03-07T09:52:55.102Z,27.60
2018-03-07T09:55:22.629Z,26.53
2018-03-07T09:57:50.149Z,27.33
2018-03-07T10:00:17.666Z,27.47
2018-03-07T10:02:45.182Z,24.33
2018-03-07T10:05:12.710Z,26.03
2018-03-07T10:07:40.235Z,26.57
2018-03-07T10:10:07.761Z,26.40
2018-03-07T10:12:35.295Z,25.30
2018-03-07T10:15:02.812Z,24.43
2018-03-07T10:17:30.332Z,25.77
2018-03-07T10:19:57.850Z,25.07
2018-03-07T10:22:25.363Z,24.97
2018-03-07T10:24:52.884Z,24.70
2018-03-07T10:27:20.408Z,23.87
2018-03-07T10:29:47.933Z,24.87
2018-03-07T10:32:15.454Z,25.63
2018-03-07T10:34:42.973Z,25.53
2018-03-07T10:37:10.492Z,25.27
2018-03-07T10:39:38.022Z,24.60
2018-03-07T10:42:05.536Z,23.17
2018-03-07T10:44:33.060Z,23.10
2018-03-07T10:47:00.578Z,24.57
2018-03-07T10:49:28.097Z,23.73
2018-03-07T10:51:55.637Z,23.57
2018-03-07T10:54:23.159Z,24.13
2018-03-07T10:56:50.675Z,23.73
2018-03-07T10:59:18.194Z,24.77
2018-03-07T11:01:45.726Z,26.17
2018-03-07T11:04:13.237Z,25.10
2018-03-07T11:06:40.747Z,23.70
2018-03-07T11:09:08.310Z,23.43
2018-03-07T11:11:35.826Z,24.80
2018-03-07T11:14:03.341Z,24.43
2018-03-07T11:16:30.859Z,25.03
2018-03-07T11:18:58.369Z,23.13
2018-03-07T11:21:25.881Z,25.00
2018-03-07T11:23:53.394Z,25.20
2018-03-07T11:26:20.916Z,24.80
2018-03-07T11:28:48.460Z,27.13
2018-03-07T11:31:15.982Z,24.97
2018-03-07T11:33:43.502Z,25.33
2018-03-07T11:36:11.026Z,25.20
2018-03-07T11:38:38.555Z,24.00
2018-03-07T11:41:06.086Z,23.53
2018-03-07T11:43:33.647Z,25.17
2018-03-07T11:46:01.163Z,25.27
2018-03-07T11:48:28.680Z,25.00
2018-03-07T11:50:56.193Z,24.73
2018-03-07T11:53:23.711Z,24.97
2018-03-07T11:55:51.275Z,26.90
2018-03-07T11:58:18.789Z,24.70
2018-03-07T12:00:46.328Z,25.97
2018-03-07T12:03:13.851Z,26.03
2018-03-07T12:05:41.374Z,25.27
2018-03-07T12:08:08.890Z,26.20
2018-03-07T12:10:36.405Z,25.97
2018-03-07T12:13:03.920Z,25.97
2018-03-07T12:15:31.441Z,26.63
2018-03-07T12:17:58.960Z,26.10
2018-03-07T12:20:26.477Z,27.03
2018-03-07T12:22:53.994Z,27.40
2018-03-07T12:25:21.514Z,27.80
2018-03-07T12:27:49.038Z,28.67
2018-03-07T12:30:16.555Z,29.33
2018-03-07T12:32:44.094Z,30.87
2018-03-07T12:35:11.620Z,29.30
2018-03-07T12:37:39.134Z,30.87
2018-03-07T12:40:06.655Z,31.13
2018-03-07T12:42:34.174Z,33.87
2018-03-07T12:45:01.682Z,33.53
2018-03-07T12:47:29.212Z,35.40
2018-03-07T12:49:56.774Z,35.53
2018-03-07T12:52:24.286Z,34.43
2018-03-07T12:54:51.811Z,35.33
2018-03-07T12:57:19.320Z,38.20
2018-03-07T12:59:46.834Z,37.47
2018-03-07T13:02:14.350Z,36.73
2018-03-07T13:04:41.861Z,37.90
2018-03-07T13:07:09.369Z,39.13
2018-03-07T13:09:36.885Z,39.47
2018-03-07T13:12:04.397Z,40.87
2018-03-07T13:14:31.908Z,39.97
2018-03-07T13:16:59.485Z,39.13
2018-03-07T13:19:27.002Z,39.63
2018-03-07T13:21:54.509Z,41.90
2018-03-07T13:24:22.022Z,41.13
2018-03-07T13:26:49.545Z,40.27
2018-03-07T13:29:17.070Z,40.13
2018-03-07T13:31:44.585Z,42.30
2018-03-07T13:34:12.106Z,42.83
2018-03-07T13:36:39.618Z,41.23
2018-03-07T13:39:07.133Z,41.87
2018-03-07T13:41:34.670Z,42.40
2018-03-07T13:44:02.186Z,41.30
2018-03-07T13:46:29.697Z,41.63
2018-03-07T13:48:57.220Z,40.67
2018-03-07T13:51:24.736Z,41.27
2018-03-07T13:53:52.257Z,40.57
2018-03-07T13:56:19.882Z,40.73
2018-03-07T13:58:47.329Z,40.37
2018-03-07T14:01:14.846Z,41.93
2018-03-07T14:03:42.367Z,42.27
2018-03-07T14:06:09.897Z,42.00
2018-03-07T14:08:37.421Z,40.27
2018-03-07T14:11:04.949Z,42.00
2018-03-07T14:13:32.466Z,41.13
2018-03-07T14:15:59.999Z,41.83
2018-03-07T14:18:27.508Z,40.87
2018-03-07T14:20:55.028Z,41.37
2018-03-07T14:23:22.574Z,41.27
2018-03-07T14:25:50.134Z,41.97
2018-03-07T14:28:17.649Z,42.97
2018-03-07T14:30:45.163Z,42.87
2018-03-07T14:33:12.681Z,42.10
2018-03-07T14:35:40.185Z,41.47
2018-03-07T14:38:07.693Z,41.33
2018-03-07T14:40:35.342Z,41.77
2018-03-07T14:43:02.868Z,42.43
2018-03-07T14:45:30.376Z,43.37
2018-03-07T14:47:57.942Z,40.67
2018-03-07T14:50:25.420Z,40.70
2018-03-07T14:52:52.941Z,42.57
2018-03-07T14:55:20.474Z,44.40
2018-03-07T14:57:47.989Z,42.53
2018-03-07T15:00:15.532Z,40.90
2018-03-07T15:02:43.048Z,42.00
2018-03-07T15:05:10.561Z,42.23
2018-03-07T15:07:38.067Z,42.20
2018-03-07T15:10:05.583Z,41.33
2018-03-07T15:12:33.098Z,42.40
2018-03-07T15:15:00.613Z,44.03
2018-03-07T15:17:28.121Z,41.47
2018-03-07T15:19:55.636Z,41.57
2018-03-07T15:22:23.153Z,41.27
2018-03-07T15:24:50.665Z,40.87
2018-03-07T15:27:18.191Z,41.63
2018-03-07T15:29:45.718Z,41.30
2018-03-07T15:32:13.244Z,40.20
2018-03-07T15:34:40.755Z,38.90
2018-03-07T15:37:08.274Z,39.77
2018-03-07T15:39:35.790Z,40.27
2018-03-07T15:42:03.315Z,39.83
2018-03-07T15:44:30.830Z,38.03
2018-03-07T15:46:58.353Z,40.43
2018-03-07T15:49:25.875Z,39.70
2018-03-07T15:51:53.386Z,39.63
2018-03-07T15:54:20.905Z,39.07
2018-03-07T15:56:48.432Z,40.10
2018-03-07T15:59:15.948Z,41.87
2018-03-07T16:01:43.514Z,39.47
2018-03-07T16:04:11.046Z,39.27
2018-03-07T16:06:38.579Z,41.43
2018-03-07T16:09:06.088Z,38.10
2018-03-07T16:11:33.602Z,39.10
2018-03-07T16:14:01.156Z,38.27
2018-03-07T16:16:28.676Z,38.60
2018-03-07T16:18:56.230Z,38.63
2018-03-07T16:21:23.770Z,37.33
2018-03-07T16:23:51.301Z,38.00
2018-03-07T16:26:18.818Z,39.67
2018-03-07T16:28:46.340Z,38.53
2018-03-07T16:31:13.849Z,38.60
2018-03-07T16:33:41.362Z,40.27
2018-03-07T16:36:08.864Z,40.17
2018-03-07T16:38:36.386Z,40.23
2018-03-07T16:41:03.902Z,38.03
2018-03-07T16:43:31.423Z,40.57
2018-03-07T16:45:58.948Z,39.67
2018-03-07T16:48:26.482Z,41.27
2018-03-07T16:50:53.993Z,41.10
2018-03-07T16:53:21.494Z,42.43
2018-03-07T16:55:49.004Z,39.00
2018-03-07T16:58:16.514Z,38.80
2018-03-07T17:00:44.029Z,40.40
2018-03-07T17:03:11.547Z,41.57
2018-03-07T17:05:39.061Z,39.27
2018-03-07T17:08:06.574Z,40.30
2018-03-07T17:10:34.096Z,40.80
2018-03-07T17:13:01.610Z,42.43
2018-03-07T17:15:29.125Z,42.67
2018-03-07T17:17:56.648Z,41.77
2018-03-07T17:20:24.158Z,44.50
2018-03-07T17:22:51.674Z,44.30
2018-03-07T17:25:19.191Z,45.27
2018-03-07T17:27:46.741Z,46.27
2018-03-07T17:30:14.265Z,42.67
2018-03-07T17:32:41.804Z,45.83
2018-03-07T17:35:09.325Z,45.93
2018-03-07T17:37:36.841Z,45.37
2018-03-07T17:40:04.433Z,44.73
2018-03-07T17:42:31.977Z,42.43
2018-03-07T17:44:59.493Z,44.70
2018-03-07T17:47:27.029Z,44.27
2018-03-07T17:49:54.616Z,43.80
2018-03-07T17:52:22.082Z,44.17
2018-03-07T17:54:49.591Z,41.77
2018-03-07T17:57:17.102Z,42.37
2018-03-07T17:59:44.612Z,42.83
2018-03-07T18:02:12.115Z,44.03
2018-03-07T18:04:39.641Z,42.87
2018-03-07T18:07:07.165Z,43.73
2018-03-07T18:09:34.684Z,42.43
2018-03-07T18:12:02.204Z,42.23
2018-03-07T18:14:29.708Z,43.43
2018-03-07T18:16:57.239Z,46.50
2018-03-07T18:19:24.754Z,44.57
2018-03-07T18:21:52.279Z,44.73
2018-03-07T18:24:19.811Z,45.47
2018-03-07T18:26:47.335Z,45.00
2018-03-07T18:29:14.866Z,42.33
2018-03-07T18:31:42.392Z,45.70
2018-03-07T18:34:09.913Z,44.00
2018-03-07T18:36:37.432Z,44.40
2018-03-07T18:39:04.965Z,42.10
2018-03-07T18:41:32.526Z,42.37
2018-03-07T18:44:00.047Z,42.43
2018-03-07T18:46:27.571Z,42.80
2018-03-07T18:48:55.092Z,43.00
2018-03-07T18:51:22.608Z,42.67
2018-03-07T18:53:50.127Z,41.50
2018-03-07T18:56:17.637Z,42.70
2018-03-07T18:58:45.171Z,42.70
2018-03-07T19:01:12.697Z,41.57
2018-03-07T19:03:40.220Z,43.80
2018-03-07T19:06:08.553Z,41.47
2018-03-07T19:08:36.073Z,42.20
2018-03-07T19:11:03.591Z,41.93
2018-03-07T19:13:31.101Z,44.00
2018-03-07T19:15:58.628Z,42.67
2018-03-07T19:18:26.166Z,44.40
2018-03-07T19:20:53.692Z,44.43
2018-03-07T19:23:21.207Z,47.43
2018-03-07T19:25:48.717Z,44.80
2018-03-07T19:28:16.238Z,44.47
2018-03-07T19:30:43.782Z,47.07
2018-03-07T19:33:11.337Z,45.50
2018-03-07T19:35:38.844Z,45.57
2018-03-07T19:38:06.421Z,47.00
2018-03-07T19:40:33.936Z,50.47
2018-03-07T19:43:01.455Z,47.67
2018-03-07T19:45:28.974Z,47.80
2018-03-07T19:47:56.476Z,48.13
2018-03-07T19:50:24.000Z,47.40
2018-03-07T19:52:51.540Z,50.43
2018-03-07T19:55:19.056Z,50.67
2018-03-07T19:57:46.583Z,49.53
2018-03-07T20:00:14.098Z,48.93
2018-03-07T20:02:41.626Z,49.20
2018-03-07T20:05:09.159Z,49.67
2018-03-07T20:07:36.685Z,47.97
2018-03-07T20:10:04.202Z,46.97
2018-03-07T20:12:31.722Z,48.07
2018-03-07T20:14:59.297Z,49.73
2018-03-07T20:17:26.820Z,48.70
2018-03-07T20:19:54.348Z,50.00
2018-03-07T20:22:21.870Z,51.17
2018-03-07T20:24:49.394Z,50.53
2018-03-07T20:27:16.925Z,46.77
2018-03-07T20:29:44.452Z,48.50
2018-03-07T20:32:12.001Z,49.07
2018-03-07T20:34:39.510Z,47.83
2018-03-07T20:37:07.030Z,49.10
2018-03-07T20:39:34.549Z,47.10
2018-03-07T20:42:02.062Z,48.57
2018-03-07T20:44:29.577Z,49.43
2018-03-07T20:46:57.097Z,46.63
2018-03-07T20:49:24.623Z,49.40
2018-03-07T20:51:52.142Z,48.23
2018-03-07T20:54:19.658Z,49.80
2018-03-07T20:56:47.173Z,47.90
2018-03-07T20:59:14.698Z,49.67
2018-03-07T21:01:42.209Z,45.87
2018-03-07T21:04:09.736Z,49.13
2018-03-07T21:06:37.254Z,49.73
2018-03-07T21:09:04.769Z,49.10
2018-03-07T21:11:32.286Z,49.97
2018-03-07T21:13:59.829Z,50.30
2018-03-07T21:16:27.344Z,49.37
2018-03-07T21:18:54.882Z,50.53
2018-03-07T21:21:22.402Z,50.63
2018-03-07T21:23:49.926Z,51.60
2018-03-07T21:26:17.457Z,49.70
2018-03-07T21:28:44.972Z,51.17
2018-03-07T21:31:12.493Z,50.90
2018-03-07T21:33:40.014Z,51.43
2018-03-07T21:36:07.538Z,51.47
2018-03-07T21:38:35.055Z,49.30
2018-03-07T21:41:02.585Z,48.87
2018-03-07T21:43:30.110Z,52.40
2018-03-07T21:45:57.620Z,50.33
2018-03-07T21:48:25.132Z,50.53
2018-03-07T21:50:52.659Z,52.03
2018-03-07T21:53:20.198Z,51.20
2018-03-07T21:55:47.740Z,51.30
2018-03-07T21:58:15.267Z,53.73
2018-03-07T22:00:42.806Z,52.43
2018-03-07T22:03:10.326Z,53.40
2018-03-07T22:05:37.857Z,54.47
2018-03-07T22:08:05.414Z,54.87
2018-03-07T22:10:32.922Z,54.70
2018-03-07T22:13:00.438Z,56.20
2018-03-07T22:15:27.969Z,55.07
2018-03-07T22:17:55.485Z,53.80
2018-03-07T22:20:23.011Z,56.27
2018-03-07T22:22:50.526Z,54.80
2018-03-07T22:25:18.049Z,55.40
2018-03-07T22:27:45.570Z,57.17
2018-03-07T22:30:13.155Z,55.33
2018-03-07T22:32:40.684Z,55.53
2018-03-07T22:35:08.195Z,55.97
2018-03-07T22:37:35.739Z,55.47
2018-03-07T22:40:03.264Z,56.27
2018-03-07T22:42:30.780Z,55.47
2018-03-07T22:44:58.303Z,56.53
2018-03-07T22:47:25.835Z,55.97
2018-03-07T22:49:53.355Z,64.35
2018-03-07T22:52:20.869Z,60.67
2018-03-07T22:54:48.387Z,60.63
2018-03-07T22:57:15.902Z,59.17
2018-03-07T22:59:43.421Z,57.07
2018-03-07T23:02:10.941Z,59.13
2018-03-07T23:04:38.467Z,58.90
2018-03-07T23:07:06.013Z,57.43
2018-03-07T23:09:33.565Z,57.83
2018-03-07T23:12:01.113Z,60.83
2018-03-07T23:14:28.677Z,59.37
2018-03-07T23:16:56.202Z,58.83
2018-03-07T23:19:23.723Z,62.27
2018-03-07T23:21:51.242Z,60.40
2018-03-07T23:24:18.763Z,58.37
2018-03-07T23:26:46.303Z,60.40
2018-03-07T23:29:13.834Z,58.67
2018-03-07T23:31:41.356Z,60.37
2018-03-07T23:34:08.878Z,62.47
2018-03-07T23:36:36.390Z,60.43
2018-03-07T23:39:03.953Z,60.90
2018-03-07T23:41:31.467Z,62.20
2018-03-07T23:43:59.016Z,62.50
2018-03-07T23:46:26.549Z,55.83
2018-03-07T23:48:54.069Z,62.20
2018-03-07T23:51:21.577Z,60.73
2018-03-07T23:53:49.093Z,59.03
2018-03-07T23:56:16.609Z,61.60
2018-03-07T23:58:44.130Z,59.00
